createdAt,value
2022-08-27T00:00:32.718Z,1.02
2022-08-27T00:02:59.283Z,1.30
2022-08-27T00:05:25.783Z,1.17
2022-08-27T00:07:52.322Z,1.05
2022-08-27T00:10:23.047Z,1.08
2022-08-27T00:12:49.628Z,1.35
2022-08-27T00:15:17.749Z,1.00
2022-08-27T00:17:46.297Z,1.00
2022-08-27T00:20:16.431Z,0.98
2022-08-27T00:22:43.212Z,1.00
2022-08-27T00:25:10.282Z,1.00
2022-08-27T00:27:37.091Z,1.17
2022-08-27T00:30:09.257Z,1.23
2022-08-27T00:32:40.448Z,1.70
2022-08-27T00:35:07.631Z,0.90
2022-08-27T00:37:34.270Z,1.10
2022-08-27T00:40:01.572Z,1.13
2022-08-27T00:42:31.005Z,1.10
2022-08-27T00:44:58.320Z,1.30
2022-08-27T00:47:27.935Z,1.00
2022-08-27T00:50:02.590Z,1.05
2022-08-27T00:52:33.371Z,0.80
2022-08-27T00:55:11.966Z,0.90
2022-08-27T00:57:40.664Z,1.05
2022-08-27T01:00:10.939Z,1.85
2022-08-27T01:02:38.131Z,1.00
2022-08-27T01:05:09.022Z,1.20
2022-08-27T01:07:41.089Z,0.85
2022-08-27T01:10:21.354Z,0.90
2022-08-27T01:12:53.556Z,0.80
2022-08-27T01:15:22.833Z,0.80
2022-08-27T01:17:51.003Z,0.70
2022-08-27T01:20:28.950Z,1.45
2022-08-27T01:23:09.714Z,1.25
2022-08-27T01:25:36.499Z,0.90
2022-08-27T01:28:04.962Z,0.82
2022-08-27T01:30:32.138Z,1.30
2022-08-27T01:32:58.729Z,1.15
2022-08-27T01:35:25.519Z,1.10
2022-08-27T01:37:54.434Z,0.60
2022-08-27T01:40:24.266Z,0.90
2022-08-27T01:42:54.794Z,0.80
2022-08-27T01:45:27.972Z,0.73
2022-08-27T01:47:54.890Z,0.93
2022-08-27T01:50:25.504Z,1.13
2022-08-27T01:52:53.193Z,0.98
2022-08-27T01:55:25.121Z,0.80
2022-08-27T01:57:52.831Z,0.80
2022-08-27T02:00:26.324Z,0.82
2022-08-27T02:02:53.201Z,1.05
2022-08-27T02:05:20.358Z,1.08
2022-08-27T02:07:47.327Z,0.70
2022-08-27T02:10:17.774Z,0.90
2022-08-27T02:12:44.274Z,0.70
2022-08-27T02:15:11.535Z,0.90
2022-08-27T02:17:38.623Z,0.80
2022-08-27T02:20:09.013Z,0.68
2022-08-27T02:22:35.764Z,0.88
2022-08-27T02:25:02.524Z,1.00
2022-08-27T02:27:29.144Z,1.00
2022-08-27T02:29:55.739Z,0.80
2022-08-27T02:32:32.199Z,0.75
2022-08-27T02:34:59.742Z,0.80
2022-08-27T02:37:26.426Z,0.70
2022-08-27T02:39:53.063Z,0.63
2022-08-27T02:42:19.629Z,1.15
2022-08-27T02:44:46.250Z,0.77
2022-08-27T02:47:12.889Z,0.65
2022-08-27T02:49:39.463Z,0.70
2022-08-27T02:52:06.356Z,0.70
2022-08-27T02:54:33.064Z,0.50
2022-08-27T02:56:59.979Z,0.60
2022-08-27T02:59:26.519Z,0.68
2022-08-27T03:01:53.163Z,0.55
2022-08-27T03:04:20.137Z,1.42
2022-08-27T03:06:47.310Z,1.20
2022-08-27T03:09:13.852Z,0.40
2022-08-27T03:11:41.016Z,0.60
2022-08-27T03:14:08.380Z,1.20
2022-08-27T03:16:36.671Z,0.50
2022-08-27T03:19:07.396Z,0.68
2022-08-27T03:21:37.889Z,1.27
2022-08-27T03:24:11.437Z,0.70
2022-08-27T03:29:05.104Z,0.82
2022-08-27T03:31:31.834Z,0.47
2022-08-27T03:34:01.406Z,0.50
2022-08-27T03:36:30.229Z,0.70
2022-08-27T03:38:57.625Z,0.65
2022-08-27T03:41:55.032Z,0.63
2022-08-27T03:44:12.037Z,0.57
2022-08-27T03:46:44.665Z,0.55
2022-08-27T03:49:11.355Z,0.60
2022-08-27T03:51:39.895Z,0.63
2022-08-27T03:54:06.600Z,0.75
2022-08-27T03:56:39.099Z,0.55
2022-08-27T03:59:06.850Z,0.60
2022-08-27T04:01:33.845Z,0.47
2022-08-27T04:04:00.442Z,0.98
2022-08-27T04:06:28.199Z,0.57
2022-08-27T04:08:54.985Z,0.57
2022-08-27T04:11:22.137Z,0.70
2022-08-27T04:13:48.696Z,1.05
2022-08-27T04:16:15.404Z,0.90
2022-08-27T04:18:41.905Z,0.70
2022-08-27T04:21:14.181Z,0.70
2022-08-27T04:23:42.289Z,0.60
2022-08-27T04:26:11.008Z,0.68
2022-08-27T04:28:38.826Z,0.82
2022-08-27T04:31:12.875Z,0.80
2022-08-27T04:33:44.061Z,0.95
2022-08-27T04:36:18.240Z,0.80
2022-08-27T04:38:44.784Z,0.90
2022-08-27T04:41:19.960Z,0.57
2022-08-27T04:43:48.729Z,0.80
2022-08-27T04:46:20.472Z,0.77
2022-08-27T04:48:47.158Z,0.50
2022-08-27T04:51:15.764Z,0.95
2022-08-27T04:53:44.352Z,0.77
2022-08-27T04:56:15.412Z,0.77
2022-08-27T04:58:42.642Z,0.60
2022-08-27T05:01:14.852Z,0.47
2022-08-27T05:03:41.434Z,1.08
2022-08-27T05:06:08.055Z,0.95
2022-08-27T05:08:34.712Z,0.82
2022-08-27T05:11:01.905Z,0.55
2022-08-27T05:13:29.297Z,1.10
2022-08-27T05:16:01.644Z,0.85
2022-08-27T05:18:28.838Z,0.80
2022-08-27T05:20:57.141Z,1.08
2022-08-27T05:23:24.230Z,0.60
2022-08-27T05:25:52.401Z,1.02
2022-08-27T05:28:28.060Z,0.70
2022-08-27T05:31:02.548Z,1.05
2022-08-27T05:33:30.388Z,0.90
2022-08-27T05:35:59.034Z,0.65
2022-08-27T05:38:28.120Z,0.75
2022-08-27T05:41:10.506Z,1.05
2022-08-27T05:43:38.923Z,0.65
2022-08-27T05:46:17.250Z,1.15
2022-08-27T05:48:44.079Z,0.70
2022-08-27T05:51:17.710Z,0.85
2022-08-27T05:53:55.401Z,0.93
2022-08-27T05:56:24.733Z,0.85
2022-08-27T05:59:09.757Z,0.70
2022-08-27T06:01:40.904Z,1.15
2022-08-27T06:04:08.921Z,0.98
2022-08-27T06:06:37.639Z,0.43
2022-08-27T06:09:05.034Z,0.68
2022-08-27T06:11:31.748Z,0.95
2022-08-27T06:13:58.257Z,0.82
2022-08-27T06:16:25.301Z,1.15
2022-08-27T06:18:52.067Z,0.85
2022-08-27T06:21:24.250Z,1.10
2022-08-27T06:23:51.725Z,0.90
2022-08-27T06:26:19.889Z,1.27
2022-08-27T06:28:46.690Z,0.80
2022-08-27T06:31:17.796Z,0.90
2022-08-27T06:33:46.209Z,1.20
2022-08-27T06:36:15.593Z,1.23
2022-08-27T06:38:43.212Z,0.80
2022-08-27T06:41:16.553Z,1.17
2022-08-27T06:43:50.646Z,1.00
2022-08-27T06:46:20.134Z,0.75
2022-08-27T06:48:53.338Z,1.00
2022-08-27T06:51:24.521Z,1.30
2022-08-27T06:53:52.594Z,0.98
2022-08-27T06:56:19.737Z,0.90
2022-08-27T06:58:46.394Z,0.98
2022-08-27T07:01:18.640Z,0.82
2022-08-27T07:03:45.672Z,1.00
2022-08-27T07:06:14.616Z,1.20
2022-08-27T07:08:41.212Z,1.00
2022-08-27T07:11:10.981Z,0.80
2022-08-27T07:13:38.639Z,0.80
2022-08-27T07:16:12.044Z,1.30
2022-08-27T07:18:39.112Z,0.87
2022-08-27T07:21:08.550Z,0.90
2022-08-27T07:23:36.775Z,0.77
2022-08-27T07:26:09.382Z,0.80
2022-08-27T07:28:36.478Z,0.90
2022-08-27T07:31:03.136Z,1.17
2022-08-27T07:33:29.754Z,0.70
2022-08-27T07:35:56.833Z,0.95
2022-08-27T07:38:23.588Z,1.25
2022-08-27T07:40:52.287Z,1.20
2022-08-27T07:43:37.798Z,0.73
2022-08-27T07:46:05.524Z,0.70
2022-08-27T07:48:34.513Z,1.20
2022-08-27T07:51:05.246Z,1.85
2022-08-27T07:53:33.087Z,1.70
2022-08-27T07:56:07.966Z,1.20
2022-08-27T07:58:35.490Z,1.75
2022-08-27T08:01:02.472Z,1.13
2022-08-27T08:03:29.293Z,2.38
2022-08-27T08:05:57.295Z,1.00
2022-08-27T08:08:25.029Z,1.13
2022-08-27T08:10:57.382Z,1.00
2022-08-27T08:13:24.462Z,1.35
2022-08-27T08:15:51.087Z,0.90
2022-08-27T08:18:17.632Z,0.95
2022-08-27T08:20:58.193Z,1.00
2022-08-27T08:23:25.376Z,1.40
2022-08-27T08:25:51.851Z,1.25
2022-08-27T08:28:18.540Z,0.82
2022-08-27T08:30:46.334Z,1.02
2022-08-27T08:33:13.518Z,1.67
2022-08-27T08:35:41.281Z,1.30
2022-08-27T08:38:08.261Z,1.10
2022-08-27T08:40:39.487Z,0.60
2022-08-27T08:43:10.077Z,1.02
2022-08-27T08:45:40.648Z,0.47
2022-08-27T08:48:13.648Z,0.90
2022-08-27T08:51:07.380Z,1.38
2022-08-27T08:53:50.934Z,1.00
2022-08-27T08:56:36.228Z,1.27
2022-08-27T08:59:16.762Z,1.10
2022-08-27T09:01:44.629Z,1.30
2022-08-27T09:04:12.479Z,1.35
2022-08-27T09:06:54.808Z,1.10
2022-08-27T09:09:33.473Z,1.40
2022-08-27T09:12:14.878Z,1.88
2022-08-27T09:15:05.023Z,1.00
2022-08-27T09:17:31.819Z,1.17
2022-08-27T09:19:58.279Z,1.02
2022-08-27T09:23:05.489Z,0.82
2022-08-27T09:25:34.274Z,1.45
2022-08-27T09:28:06.051Z,1.10
2022-08-27T09:30:42.627Z,0.77
2022-08-27T09:33:11.948Z,1.40
2022-08-27T09:35:44.798Z,1.05
2022-08-27T09:38:19.145Z,0.88
2022-08-27T09:40:52.377Z,1.38
2022-08-27T09:43:25.027Z,0.77
2022-08-27T09:46:00.446Z,0.90
2022-08-27T09:48:44.854Z,0.93
2022-08-27T09:51:21.892Z,1.02
2022-08-27T09:53:53.119Z,0.60
2022-08-27T09:56:39.236Z,0.57
2022-08-27T09:59:12.543Z,0.98
2022-08-27T10:02:20.054Z,0.60
2022-08-27T10:04:55.458Z,0.70
2022-08-27T10:07:43.734Z,1.15
2022-08-27T10:10:13.743Z,1.60
2022-08-27T10:13:01.825Z,1.20
2022-08-27T10:15:50.782Z,1.05
2022-08-27T10:18:37.527Z,0.93
2022-08-27T10:21:19.414Z,0.75
2022-08-27T10:23:58.966Z,1.02
2022-08-27T10:26:52.662Z,0.95
2022-08-27T10:29:45.650Z,1.23
2022-08-27T10:32:27.422Z,0.65
2022-08-27T10:35:13.813Z,1.45
2022-08-27T10:37:52.681Z,1.02
2022-08-27T10:40:38.040Z,1.23
2022-08-27T10:43:32.459Z,1.08
2022-08-27T10:46:26.864Z,1.40
2022-08-27T10:49:21.349Z,1.13
2022-08-27T10:52:09.054Z,2.03
2022-08-27T10:54:43.429Z,1.10
2022-08-27T10:57:59.002Z,1.48
2022-08-27T11:01:07.959Z,0.95
2022-08-27T11:03:41.063Z,1.10
2022-08-27T11:06:36.991Z,0.77
2022-08-27T11:09:29.798Z,1.25
2022-08-27T11:12:18.399Z,1.23
2022-08-27T11:15:03.345Z,0.93
2022-08-27T11:17:37.582Z,1.08
2022-08-27T11:20:09.752Z,1.20
2022-08-27T11:22:42.246Z,1.08
2022-08-27T11:25:32.056Z,1.02
2022-08-27T11:28:00.517Z,0.93
2022-08-27T11:30:45.347Z,0.90
2022-08-27T11:33:45.826Z,0.90
2022-08-27T11:36:40.366Z,1.30
2022-08-27T11:39:31.163Z,1.23
2022-08-27T11:42:09.255Z,1.05
2022-08-27T11:44:43.094Z,1.00
2022-08-27T11:47:13.850Z,0.68
2022-08-27T11:49:50.989Z,0.65
2022-08-27T11:52:22.294Z,1.13
2022-08-27T11:55:08.839Z,1.48
2022-08-27T11:57:38.697Z,0.75
2022-08-27T12:00:27.239Z,1.00
2022-08-27T12:03:06.276Z,0.68
2022-08-27T12:05:40.716Z,0.82
2022-08-27T12:08:21.276Z,1.83
2022-08-27T12:11:06.598Z,1.10
2022-08-27T12:13:54.373Z,1.00
2022-08-27T12:16:32.584Z,0.82
2022-08-27T12:19:28.825Z,1.13
2022-08-27T12:22:15.331Z,1.05
2022-08-27T12:25:02.140Z,0.90
2022-08-27T12:27:32.766Z,1.10
2022-08-27T12:30:27.611Z,0.65
2022-08-27T12:32:57.689Z,0.68
2022-08-27T12:35:42.881Z,1.00
2022-08-27T12:38:18.325Z,0.60
2022-08-27T12:40:53.008Z,1.00
2022-08-27T12:43:26.166Z,0.82
2022-08-27T12:46:00.767Z,1.23
2022-08-27T12:48:32.414Z,0.80
2022-08-27T12:51:06.920Z,0.93
2022-08-27T12:54:01.667Z,0.98
2022-08-27T12:56:59.205Z,0.40
2022-08-27T12:59:36.516Z,0.82
2022-08-27T13:02:27.307Z,0.82
2022-08-27T13:04:54.403Z,0.65
2022-08-27T13:07:38.116Z,0.63
2022-08-27T13:10:31.330Z,1.05
2022-08-27T13:13:16.671Z,0.90
2022-08-27T13:15:51.033Z,0.70
2022-08-27T13:18:17.978Z,0.80
2022-08-27T13:20:52.646Z,0.57
2022-08-27T13:23:27.250Z,0.60
2022-08-27T13:26:14.038Z,0.98
2022-08-27T13:28:42.877Z,0.98
2022-08-27T13:31:11.082Z,0.93
2022-08-27T13:33:39.753Z,0.80
2022-08-27T13:36:07.324Z,0.60
2022-08-27T13:38:41.103Z,0.80
2022-08-27T13:41:22.493Z,0.82
2022-08-27T13:43:49.387Z,1.00
2022-08-27T13:46:24.237Z,0.63
2022-08-27T13:48:53.728Z,0.68
2022-08-27T13:51:38.559Z,1.00
2022-08-27T13:54:15.378Z,0.82
2022-08-27T13:56:55.360Z,0.60
2022-08-27T13:59:24.189Z,1.00
2022-08-27T14:02:01.057Z,0.95
2022-08-27T14:04:38.507Z,0.70
2022-08-27T14:07:23.729Z,1.27
2022-08-27T14:10:02.121Z,0.25
2022-08-27T14:12:34.508Z,0.70
2022-08-27T14:15:20.068Z,0.60
2022-08-27T14:17:47.517Z,1.15
2022-08-27T14:20:15.973Z,1.00
2022-08-27T14:22:43.982Z,0.85
2022-08-27T14:25:10.812Z,0.60
2022-08-27T14:27:38.778Z,0.80
2022-08-27T14:30:13.455Z,0.90
2022-08-27T14:32:41.822Z,0.90
2022-08-27T14:35:10.874Z,0.90
2022-08-27T14:37:41.926Z,0.85
2022-08-27T14:40:10.344Z,0.80
2022-08-27T14:42:37.338Z,1.00
2022-08-27T14:45:04.723Z,1.08
2022-08-27T14:47:33.852Z,0.70
2022-08-27T14:50:01.002Z,1.02
2022-08-27T14:52:27.586Z,0.68
2022-08-27T14:54:54.069Z,0.88
2022-08-27T14:57:22.754Z,0.50
2022-08-27T14:59:49.262Z,0.93
2022-08-27T15:02:18.963Z,0.90
2022-08-27T15:04:47.225Z,1.38
2022-08-27T15:07:14.457Z,1.30
2022-08-27T15:09:40.951Z,1.38
2022-08-27T15:12:07.867Z,1.23
2022-08-27T15:14:44.459Z,0.85
2022-08-27T15:17:22.101Z,1.20
2022-08-27T15:19:57.977Z,5.13
2022-08-27T15:22:29.039Z,5.05
2022-08-27T15:24:57.650Z,3.00
2022-08-27T15:27:32.083Z,3.20
2022-08-27T15:30:08.764Z,2.90
2022-08-27T15:32:39.610Z,2.90
2022-08-27T15:35:12.252Z,1.85
2022-08-27T15:37:38.785Z,1.85
2022-08-27T15:40:05.916Z,1.77
2022-08-27T15:42:32.441Z,1.23
2022-08-27T15:44:58.927Z,1.40
2022-08-27T15:47:25.737Z,1.25
2022-08-27T15:49:52.614Z,1.70
2022-08-27T15:52:21.867Z,0.73
2022-08-27T15:54:50.050Z,1.27
2022-08-27T15:57:17.935Z,0.90
2022-08-27T15:59:44.967Z,1.15
2022-08-27T16:02:17.346Z,0.82
2022-08-27T16:04:44.717Z,1.15
2022-08-27T16:07:16.179Z,0.82
2022-08-27T16:09:46.630Z,1.08
2022-08-27T16:12:26.803Z,0.70
2022-08-27T16:14:54.458Z,0.82
2022-08-27T16:17:21.209Z,0.80
2022-08-27T16:19:47.908Z,0.70
2022-08-27T16:22:16.117Z,0.80
2022-08-27T16:24:42.578Z,0.68
2022-08-27T16:27:09.053Z,0.82
2022-08-27T16:29:35.507Z,0.88
2022-08-27T16:32:02.278Z,0.98
2022-08-27T16:34:29.165Z,0.90
2022-08-27T16:36:56.615Z,1.00
2022-08-27T16:39:23.523Z,0.93
2022-08-27T16:41:50.364Z,0.70
2022-08-27T16:44:17.680Z,1.15
2022-08-27T16:46:44.334Z,1.10
2022-08-27T16:49:29.443Z,1.00
2022-08-27T16:51:56.069Z,0.82
2022-08-27T16:54:22.660Z,1.08
2022-08-27T16:56:49.703Z,0.98
2022-08-27T16:59:16.519Z,0.70
2022-08-27T17:01:45.426Z,1.02
2022-08-27T17:04:19.378Z,0.82
2022-08-27T17:06:54.753Z,0.70
2022-08-27T17:09:21.355Z,1.05
2022-08-27T17:11:54.470Z,1.42
2022-08-27T17:14:21.209Z,1.30
2022-08-27T17:16:47.762Z,1.40
2022-08-27T17:19:16.875Z,1.55
2022-08-27T17:21:45.311Z,2.22
2022-08-27T17:24:12.926Z,1.15
2022-08-27T17:26:39.997Z,0.95
2022-08-27T17:29:06.842Z,1.27
2022-08-27T17:31:36.911Z,1.10
2022-08-27T17:34:06.451Z,1.55
2022-08-27T17:36:33.690Z,1.52
2022-08-27T17:39:02.664Z,1.40
2022-08-27T17:41:34.043Z,1.30
2022-08-27T17:44:06.843Z,1.27
2022-08-27T17:46:33.358Z,1.20
2022-08-27T17:48:59.928Z,1.27
2022-08-27T17:51:27.850Z,1.23
2022-08-27T17:54:00.953Z,1.33
2022-08-27T17:56:28.944Z,1.50
2022-08-27T17:58:55.687Z,1.17
2022-08-27T18:01:28.339Z,1.42
2022-08-27T18:03:56.800Z,1.08
2022-08-27T18:06:24.156Z,0.90
2022-08-27T18:08:50.720Z,1.05
2022-08-27T18:11:17.682Z,1.02
2022-08-27T18:13:48.043Z,1.15
2022-08-27T18:16:14.553Z,1.27
2022-08-27T18:18:41.234Z,1.05
2022-08-27T18:21:10.014Z,1.83
2022-08-27T18:23:37.271Z,1.73
2022-08-27T18:26:06.625Z,1.73
2022-08-27T18:28:34.141Z,1.38
2022-08-27T18:31:03.645Z,1.27
2022-08-27T18:33:33.124Z,1.33
2022-08-27T18:35:59.623Z,1.35
2022-08-27T18:38:26.803Z,1.20
2022-08-27T18:40:54.645Z,1.40
2022-08-27T18:43:29.563Z,1.67
2022-08-27T18:45:56.071Z,1.20
2022-08-27T18:48:23.238Z,1.23
2022-08-27T18:50:55.477Z,1.38
2022-08-27T18:53:22.024Z,1.30
2022-08-27T18:55:50.110Z,1.60
2022-08-27T18:58:17.390Z,1.30
2022-08-27T19:00:47.082Z,2.00
2022-08-27T19:03:21.052Z,1.35
2022-08-27T19:08:22.021Z,1.30
2022-08-27T19:10:48.604Z,1.90
2022-08-27T19:13:15.096Z,1.58
2022-08-27T19:15:46.393Z,1.58
2022-08-27T19:18:13.076Z,1.60
2022-08-27T19:20:40.066Z,1.88
2022-08-27T19:23:06.537Z,2.50
2022-08-27T19:25:33.019Z,2.42
2022-08-27T19:27:59.634Z,2.50
2022-08-27T19:30:26.123Z,1.40
2022-08-27T19:32:54.836Z,1.50
2022-08-27T19:35:23.503Z,1.40
2022-08-27T19:37:53.464Z,1.80
2022-08-27T19:40:22.036Z,1.67
2022-08-27T19:42:49.817Z,2.45
2022-08-27T19:45:16.382Z,1.20
2022-08-27T19:47:50.418Z,1.35
2022-08-27T19:50:17.967Z,1.85
2022-08-27T19:52:44.737Z,1.40
2022-08-27T19:55:13.951Z,1.27
2022-08-27T19:57:41.807Z,1.30
2022-08-27T20:00:09.682Z,1.33
2022-08-27T20:02:36.266Z,1.38
2022-08-27T20:05:17.616Z,1.40
2022-08-27T20:07:45.909Z,2.05
2022-08-27T20:10:12.706Z,1.50
2022-08-27T20:12:39.285Z,1.30
2022-08-27T20:15:06.483Z,1.10
2022-08-27T20:17:34.530Z,1.45
2022-08-27T20:20:01.061Z,1.52
2022-08-27T20:22:27.660Z,1.27
2022-08-27T20:24:54.119Z,1.17
2022-08-27T20:27:20.675Z,1.00
2022-08-27T20:29:47.384Z,1.45
2022-08-27T20:32:14.027Z,1.45
2022-08-27T20:34:40.532Z,2.42
2022-08-27T20:37:07.891Z,1.30
2022-08-27T20:39:34.413Z,1.40
2022-08-27T20:42:01.022Z,1.35
2022-08-27T20:44:27.476Z,1.33
2022-08-27T20:46:58.153Z,1.52
2022-08-27T20:49:25.127Z,1.48
2022-08-27T20:52:03.618Z,1.40
2022-08-27T20:54:31.883Z,1.48
2022-08-27T20:56:58.803Z,1.00
2022-08-27T20:59:44.567Z,1.17
2022-08-27T21:02:14.270Z,0.98
2022-08-27T21:04:48.163Z,1.13
2022-08-27T21:07:15.948Z,1.60
2022-08-27T21:09:55.962Z,0.90
2022-08-27T21:12:28.464Z,1.02
2022-08-27T21:14:56.472Z,1.75
2022-08-27T21:17:29.585Z,1.02
2022-08-27T21:19:56.738Z,1.25
2022-08-27T21:22:24.216Z,1.23
2022-08-27T21:24:51.111Z,1.20
2022-08-27T21:27:21.054Z,1.08
2022-08-27T21:29:48.144Z,1.25
2022-08-27T21:32:14.921Z,1.52
2022-08-27T21:34:41.902Z,1.08
2022-08-27T21:37:09.416Z,0.93
2022-08-27T21:39:37.567Z,1.48
2022-08-27T21:42:04.151Z,1.00
2022-08-27T21:44:30.806Z,1.33
2022-08-27T21:46:58.187Z,1.13
2022-08-27T21:49:24.733Z,1.35
2022-08-27T21:51:51.402Z,1.48
2022-08-27T21:54:17.934Z,0.82
2022-08-27T21:56:45.394Z,1.10
2022-08-27T21:59:11.959Z,1.15
2022-08-27T22:01:39.327Z,1.15
2022-08-27T22:04:05.980Z,1.08
2022-08-27T22:06:32.545Z,1.42
2022-08-27T22:08:59.050Z,0.93
2022-08-27T22:11:25.725Z,0.93
2022-08-27T22:13:52.765Z,1.15
2022-08-27T22:16:19.456Z,1.30
2022-08-27T22:18:45.997Z,1.30
2022-08-27T22:21:13.171Z,1.17
2022-08-27T22:23:39.639Z,1.45
2022-08-27T22:26:11.237Z,0.90
2022-08-27T22:28:37.750Z,1.40
2022-08-27T22:31:04.262Z,1.05
2022-08-27T22:33:30.739Z,1.10
2022-08-27T22:35:57.181Z,1.25
2022-08-27T22:38:23.734Z,1.13
2022-08-27T22:40:51.925Z,1.13
2022-08-27T22:43:18.391Z,0.88
2022-08-27T22:45:44.853Z,0.90
2022-08-27T22:48:12.031Z,0.85
2022-08-27T22:50:38.843Z,1.30
2022-08-27T22:53:06.382Z,0.80
2022-08-27T22:55:33.211Z,1.25
2022-08-27T22:58:01.945Z,1.10
2022-08-27T23:00:34.863Z,1.35
2022-08-27T23:03:05.474Z,1.70
2022-08-27T23:05:40.341Z,1.13
2022-08-27T23:08:08.967Z,0.90
2022-08-27T23:10:36.707Z,1.00
2022-08-27T23:13:04.021Z,1.00
2022-08-27T23:15:30.567Z,1.40
2022-08-27T23:17:57.575Z,1.00
2022-08-27T23:20:25.718Z,0.80
2022-08-27T23:22:53.372Z,1.15
2022-08-27T23:25:43.250Z,1.20
2022-08-27T23:28:14.262Z,1.15
2022-08-27T23:30:41.542Z,0.90
2022-08-27T23:33:08.046Z,0.98
2022-08-27T23:35:34.658Z,0.75
2022-08-27T23:38:01.182Z,0.70
2022-08-27T23:40:27.862Z,1.73
2022-08-27T23:42:54.973Z,1.08
2022-08-27T23:45:24.550Z,1.05
2022-08-27T23:47:51.062Z,1.10
2022-08-27T23:50:18.142Z,0.93
2022-08-27T23:52:44.786Z,2.13
2022-08-27T23:55:12.043Z,0.75
2022-08-27T23:57:39.711Z,1.35
